sensor_id;sensor_type;location;lat;lon;timestamp;pressure;altitude;pressure_sealevel;temperature;humidity
35519;BME280;21627;48.216;16.482;2023-05-11T00:00:48;99719.41;;;13.60;79.91
35519;BME280;21627;48.216;16.482;2023-05-11T00:03:15;99709.03;;;13.60;80.20
35519;BME280;21627;48.216;16.482;2023-05-11T00:05:47;99711.59;;;13.63;80.66
35519;BME280;21627;48.216;16.482;2023-05-11T00:08:14;99701.28;;;13.57;81.31
35519;BME280;21627;48.216;16.482;2023-05-11T00:10:47;99705.59;;;13.58;80.47
35519;BME280;21627;48.216;16.482;2023-05-11T00:13:14;99709.03;;;13.60;81.59
35519;BME280;21627;48.216;16.482;2023-05-11T00:15:41;99703.03;;;13.56;81.87
35519;BME280;21627;48.216;16.482;2023-05-11T00:18:09;99704.72;;;13.57;83.02
35519;BME280;21627;48.216;16.482;2023-05-11T00:20:36;99703.97;;;13.51;83.41
35519;BME280;21627;48.216;16.482;2023-05-11T00:23:03;99703.09;;;13.50;84.11
35519;BME280;21627;48.216;16.482;2023-05-11T00:25:30;99713.53;;;13.47;85.28
35519;BME280;21627;48.216;16.482;2023-05-11T00:27:57;99700.59;;;13.44;85.75
35519;BME280;21627;48.216;16.482;2023-05-11T00:30:24;99709.31;;;13.38;86.16
35519;BME280;21627;48.216;16.482;2023-05-11T00:32:51;99713.63;;;13.38;87.57
35519;BME280;21627;48.216;16.482;2023-05-11T00:35:19;99711.06;;;13.36;87.93
35519;BME280;21627;48.216;16.482;2023-05-11T00:37:46;99713.72;;;13.33;87.58
35519;BME280;21627;48.216;16.482;2023-05-11T00:40:13;99709.41;;;13.31;88.38
35519;BME280;21627;48.216;16.482;2023-05-11T00:42:40;99706.81;;;13.29;88.34
35519;BME280;21627;48.216;16.482;2023-05-11T00:45:08;99710.31;;;13.28;88.63
35519;BME280;21627;48.216;16.482;2023-05-11T00:47:35;99708.56;;;13.27;89.07
35519;BME280;21627;48.216;16.482;2023-05-11T00:50:03;99717.22;;;13.25;90.52
35519;BME280;21627;48.216;16.482;2023-05-11T00:52:31;99713.78;;;13.23;90.87
35519;BME280;21627;48.216;16.482;2023-05-11T00:54:58;99719.00;;;13.21;90.65
35519;BME280;21627;48.216;16.482;2023-05-11T00:57:26;99710.28;;;13.25;90.11
35519;BME280;21627;48.216;16.482;2023-05-11T00:59:53;99708.59;;;13.23;89.65
35519;BME280;21627;48.216;16.482;2023-05-11T01:02:20;99712.88;;;13.25;89.89
35519;BME280;21627;48.216;16.482;2023-05-11T01:04:47;99714.63;;;13.26;89.90
35519;BME280;21627;48.216;16.482;2023-05-11T01:07:51;99711.16;;;13.27;89.57
35519;BME280;21627;48.216;16.482;2023-05-11T01:10:33;99706.84;;;13.26;88.49
35519;BME280;21627;48.216;16.482;2023-05-11T01:15:53;99704.28;;;13.21;89.39
35519;BME280;21627;48.216;16.482;2023-05-11T01:20:59;99707.78;;;13.19;88.10
35519;BME280;21627;48.216;16.482;2023-05-11T01:32:39;99704.38;;;13.14;88.92
35519;BME280;21627;48.216;16.482;2023-05-11T01:35:16;99715.59;;;13.16;89.08
35519;BME280;21627;48.216;16.482;2023-05-11T01:37:49;99712.97;;;13.17;89.15
35519;BME280;21627;48.216;16.482;2023-05-11T01:40:23;99710.47;;;13.13;90.13
35519;BME280;21627;48.216;16.482;2023-05-11T01:43:01;99709.56;;;13.12;90.80
35519;BME280;21627;48.216;16.482;2023-05-11T01:45:35;99722.59;;;13.11;91.51
35519;BME280;21627;48.216;16.482;2023-05-11T01:48:08;99712.25;;;13.06;91.60
35519;BME280;21627;48.216;16.482;2023-05-11T01:50:38;99714.00;;;13.04;91.54
35519;BME280;21627;48.216;16.482;2023-05-11T01:53:05;99709.69;;;13.02;92.83
35519;BME280;21627;48.216;16.482;2023-05-11T01:55:33;99726.16;;;12.99;94.20
35519;BME280;21627;48.216;16.482;2023-05-11T01:58:03;99722.72;;;12.97;94.10
35519;BME280;21627;48.216;16.482;2023-05-11T02:00:32;99717.56;;;12.94;93.48
35519;BME280;21627;48.216;16.482;2023-05-11T02:03:01;99719.34;;;12.90;95.70
35519;BME280;21627;48.216;16.482;2023-05-11T02:05:30;99717.59;;;12.89;98.39
35519;BME280;21627;48.216;16.482;2023-05-11T02:08:02;99712.44;;;12.88;100.00
35519;BME280;21627;48.216;16.482;2023-05-11T02:10:31;99726.31;;;12.85;100.00
35519;BME280;21627;48.216;16.482;2023-05-11T02:13:01;99718.56;;;12.79;100.00
35519;BME280;21627;48.216;16.482;2023-05-11T02:15:29;99725.53;;;12.74;100.00
35519;BME280;21627;48.216;16.482;2023-05-11T02:17:57;99718.66;;;12.70;100.00
35519;BME280;21627;48.216;16.482;2023-05-11T02:20:25;99723.88;;;12.67;100.00
35519;BME280;21627;48.216;16.482;2023-05-11T02:22:53;99723.91;;;12.62;100.00
35519;BME280;21627;48.216;16.482;2023-05-11T02:25:23;99728.28;;;12.59;100.00
35519;BME280;21627;48.216;16.482;2023-05-11T02:27:51;99724.84;;;12.55;100.00
35519;BME280;21627;48.216;16.482;2023-05-11T02:30:18;99733.53;;;12.52;100.00
35519;BME280;21627;48.216;16.482;2023-05-11T02:32:51;99720.59;;;12.46;100.00
35519;BME280;21627;48.216;16.482;2023-05-11T02:35:28;99726.63;;;12.47;100.00
35519;BME280;21627;48.216;16.482;2023-05-11T02:38:00;99718.88;;;12.42;100.00
35519;BME280;21627;48.216;16.482;2023-05-11T02:40:38;99723.22;;;12.42;100.00
35519;BME280;21627;48.216;16.482;2023-05-11T02:43:12;99729.28;;;12.41;100.00
35519;BME280;21627;48.216;16.482;2023-05-11T02:45:43;99729.31;;;12.36;100.00
35519;BME280;21627;48.216;16.482;2023-05-11T02:48:24;99729.34;;;12.33;100.00
35519;BME280;21627;48.216;16.482;2023-05-11T02:50:55;99732.81;;;12.29;100.00
35519;BME280;21627;48.216;16.482;2023-05-11T02:53:26;99731.13;;;12.26;100.00
35519;BME280;21627;48.216;16.482;2023-05-11T02:55:54;99725.97;;;12.25;100.00
35519;BME280;21627;48.216;16.482;2023-05-11T02:58:22;99728.56;;;12.23;100.00
35519;BME280;21627;48.216;16.482;2023-05-11T03:00:50;99720.81;;;12.20;100.00
35519;BME280;21627;48.216;16.482;2023-05-11T03:03:17;99732.00;;;12.24;100.00
35519;BME280;21627;48.216;16.482;2023-05-11T03:05:44;99733.72;;;12.22;100.00
35519;BME280;21627;48.216;16.482;2023-05-11T03:08:12;99733.75;;;12.20;100.00
35519;BME280;21627;48.216;16.482;2023-05-11T03:10:39;99727.75;;;12.15;100.00
35519;BME280;21627;48.216;16.482;2023-05-11T03:13:08;99728.59;;;12.14;100.00
35519;BME280;21627;48.216;16.482;2023-05-11T03:15:37;99726.00;;;12.16;100.00
35519;BME280;21627;48.216;16.482;2023-05-11T03:18:05;99732.06;;;12.18;100.00
35519;BME280;21627;48.216;16.482;2023-05-11T03:20:36;99728.63;;;12.09;100.00
35519;BME280;21627;48.216;16.482;2023-05-11T03:23:05;99731.22;;;12.12;100.00
35519;BME280;21627;48.216;16.482;2023-05-11T03:25:33;99725.19;;;12.12;100.00
35519;BME280;21627;48.216;16.482;2023-05-11T03:28:00;99721.75;;;12.05;100.00
35519;BME280;21627;48.216;16.482;2023-05-11T03:30:30;99722.59;;;12.09;100.00
35519;BME280;21627;48.216;16.482;2023-05-11T03:32:58;99717.41;;;12.09;100.00
35519;BME280;21627;48.216;16.482;2023-05-11T03:35:27;99723.47;;;12.06;100.00
35519;BME280;21627;48.216;16.482;2023-05-11T03:37:56;99717.44;;;12.06;100.00
35519;BME280;21627;48.216;16.482;2023-05-11T03:40:24;99722.63;;;12.06;100.00
35519;BME280;21627;48.216;16.482;2023-05-11T03:42:54;99714.88;;;12.03;100.00
35519;BME280;21627;48.216;16.482;2023-05-11T03:45:22;99711.41;;;12.04;100.00
35519;BME280;21627;48.216;16.482;2023-05-11T03:47:52;99711.44;;;12.01;100.00
35519;BME280;21627;48.216;16.482;2023-05-11T03:50:21;99716.59;;;12.02;100.00
35519;BME280;21627;48.216;16.482;2023-05-11T03:52:49;99709.72;;;11.97;100.00
35519;BME280;21627;48.216;16.482;2023-05-11T03:55:16;99714.00;;;11.99;100.00
35519;BME280;21627;48.216;16.482;2023-05-11T03:57:43;99718.34;;;11.99;100.00
35519;BME280;21627;48.216;16.482;2023-05-11T04:00:11;99713.19;;;11.97;100.00
35519;BME280;21627;48.216;16.482;2023-05-11T04:02:39;99718.38;;;11.96;100.00
35519;BME280;21627;48.216;16.482;2023-05-11T04:05:11;99720.09;;;12.00;100.00
35519;BME280;21627;48.216;16.482;2023-05-11T04:07:39;99717.50;;;11.98;100.00
35519;BME280;21627;48.216;16.482;2023-05-11T04:10:06;99730.41;;;12.03;100.00
35519;BME280;21627;48.216;16.482;2023-05-11T04:12:34;99727.84;;;12.00;100.00
35519;BME280;21627;48.216;16.482;2023-05-11T04:15:01;99725.25;;;12.00;100.00
35519;BME280;21627;48.216;16.482;2023-05-11T04:17:28;99726.13;;;12.00;100.00
35519;BME280;21627;48.216;16.482;2023-05-11T04:19:55;99726.09;;;12.03;100.00
35519;BME280;21627;48.216;16.482;2023-05-11T04:22:22;99731.28;;;12.03;100.00
35519;BME280;21627;48.216;16.482;2023-05-11T04:24:49;99729.56;;;12.02;100.00
35519;BME280;21627;48.216;16.482;2023-05-11T04:27:16;99726.91;;;12.07;100.00
35519;BME280;21627;48.216;16.482;2023-05-11T04:29:43;99729.50;;;12.08;100.00
35519;BME280;21627;48.216;16.482;2023-05-11T04:32:10;99734.66;;;12.13;100.00
35519;BME280;21627;48.216;16.482;2023-05-11T04:34:38;99736.41;;;12.12;100.00
35519;BME280;21627;48.216;16.482;2023-05-11T04:37:05;99741.56;;;12.14;100.00
35519;BME280;21627;48.216;16.482;2023-05-11T04:39:33;99740.72;;;12.13;100.00
35519;BME280;21627;48.216;16.482;2023-05-11T04:42:00;99738.09;;;12.18;100.00
35519;BME280;21627;48.216;16.482;2023-05-11T04:44:28;99734.66;;;12.16;100.00
35519;BME280;21627;48.216;16.482;2023-05-11T04:46:55;99738.06;;;12.23;100.00
35519;BME280;21627;48.216;16.482;2023-05-11T04:49:22;99743.25;;;12.21;100.00
35519;BME280;21627;48.216;16.482;2023-05-11T04:51:50;99743.22;;;12.24;100.00
35519;BME280;21627;48.216;16.482;2023-05-11T04:54:17;99750.13;;;12.27;100.00
35519;BME280;21627;48.216;16.482;2023-05-11T04:56:44;99746.66;;;12.28;100.00
35519;BME280;21627;48.216;16.482;2023-05-11T04:59:11;99749.22;;;12.29;100.00
35519;BME280;21627;48.216;16.482;2023-05-11T05:01:38;99748.34;;;12.33;100.00
35519;BME280;21627;48.216;16.482;2023-05-11T05:04:05;99746.66;;;12.32;100.00
35519;BME280;21627;48.216;16.482;2023-05-11T05:06:32;99752.66;;;12.38;100.00
35519;BME280;21627;48.216;16.482;2023-05-11T05:09:00;99754.34;;;12.42;100.00
35519;BME280;21627;48.216;16.482;2023-05-11T05:11:27;99758.63;;;12.47;100.00
35519;BME280;21627;48.216;16.482;2023-05-11T05:13:54;99747.38;;;12.48;100.00
35519;BME280;21627;48.216;16.482;2023-05-11T05:16:21;99755.94;;;12.56;100.00
35519;BME280;21627;48.216;16.482;2023-05-11T05:18:48;99744.72;;;12.56;100.00
35519;BME280;21627;48.216;16.482;2023-05-11T05:21:15;99756.75;;;12.65;100.00
35519;BME280;21627;48.216;16.482;2023-05-11T05:23:42;99758.47;;;12.64;100.00
35519;BME280;21627;48.216;16.482;2023-05-11T05:26:09;99760.16;;;12.73;100.00
35519;BME280;21627;48.216;16.482;2023-05-11T05:28:37;99758.38;;;12.75;100.00
35519;BME280;21627;48.216;16.482;2023-05-11T05:31:04;99756.63;;;12.77;100.00
35519;BME280;21627;48.216;16.482;2023-05-11T05:33:32;99755.75;;;12.80;100.00
35519;BME280;21627;48.216;16.482;2023-05-11T05:35:59;99768.66;;;12.87;100.00
35519;BME280;21627;48.216;16.482;2023-05-11T05:38:26;99766.03;;;12.92;100.00
35519;BME280;21627;48.216;16.482;2023-05-11T05:40:53;99763.38;;;12.95;100.00
35519;BME280;21627;48.216;16.482;2023-05-11T05:43:20;99765.94;;;13.01;100.00
35519;BME280;21627;48.216;16.482;2023-05-11T05:45:47;99774.53;;;13.06;100.00
35519;BME280;21627;48.216;16.482;2023-05-11T05:48:14;99777.09;;;13.11;99.32
35519;BME280;21627;48.216;16.482;2023-05-11T05:50:41;99770.09;;;13.17;98.19
35519;BME280;21627;48.216;16.482;2023-05-11T05:53:08;99767.50;;;13.17;99.17
35519;BME280;21627;48.216;16.482;2023-05-11T05:55:36;99771.75;;;13.25;99.20
35519;BME280;21627;48.216;16.482;2023-05-11T05:58:03;99773.50;;;13.27;95.66
35519;BME280;21627;48.216;16.482;2023-05-11T06:00:30;99774.28;;;13.32;96.68
35519;BME280;21627;48.216;16.482;2023-05-11T06:02:57;99776.84;;;13.38;94.23
35519;BME280;21627;48.216;16.482;2023-05-11T06:05:24;99781.91;;;13.48;91.76
35519;BME280;21627;48.216;16.482;2023-05-11T06:07:51;99774.97;;;13.51;89.88
35519;BME280;21627;48.216;16.482;2023-05-11T06:10:35;99777.47;;;13.59;89.52
35519;BME280;21627;48.216;16.482;2023-05-11T06:13:02;99779.13;;;13.66;87.35
35519;BME280;21627;48.216;16.482;2023-05-11T06:15:29;99786.03;;;13.67;84.20
35519;BME280;21627;48.216;16.482;2023-05-11T06:17:56;99787.69;;;13.73;84.01
35519;BME280;21627;48.216;16.482;2023-05-11T06:20:24;99786.78;;;13.77;81.36
35519;BME280;21627;48.216;16.482;2023-05-11T06:22:51;99792.81;;;13.77;83.65
35519;BME280;21627;48.216;16.482;2023-05-11T06:25:18;99789.34;;;13.80;83.93
35519;BME280;21627;48.216;16.482;2023-05-11T06:27:45;99788.44;;;13.82;84.22
35519;BME280;21627;48.216;16.482;2023-05-11T06:30:13;99795.31;;;13.87;81.44
35519;BME280;21627;48.216;16.482;2023-05-11T06:32:40;99793.53;;;13.92;82.92
35519;BME280;21627;48.216;16.482;2023-05-11T06:35:07;99790.91;;;13.92;83.49
35519;BME280;21627;48.216;16.482;2023-05-11T06:37:35;99791.69;;;13.98;83.30
35519;BME280;21627;48.216;16.482;2023-05-11T06:40:02;99792.47;;;14.03;81.64
35519;BME280;21627;48.216;16.482;2023-05-11T06:42:30;99795.91;;;14.09;80.77
35519;BME280;21627;48.216;16.482;2023-05-11T06:44:57;99793.19;;;14.16;82.93
35519;BME280;21627;48.216;16.482;2023-05-11T06:47:24;99794.00;;;14.20;81.38
35519;BME280;21627;48.216;16.482;2023-05-11T06:49:51;99789.59;;;14.26;81.80
35519;BME280;21627;48.216;16.482;2023-05-11T06:52:18;99788.63;;;14.32;80.09
35519;BME280;21627;48.216;16.482;2023-05-11T06:54:45;99788.56;;;14.37;79.90
35519;BME280;21627;48.216;16.482;2023-05-11T06:57:12;99787.63;;;14.41;80.52
35519;BME280;21627;48.216;16.482;2023-05-11T06:59:40;99792.69;;;14.50;78.32
35519;BME280;21627;48.216;16.482;2023-05-11T07:02:08;99781.38;;;14.53;79.92
35519;BME280;21627;48.216;16.482;2023-05-11T07:04:35;99782.13;;;14.62;78.71
35519;BME280;21627;48.216;16.482;2023-05-11T07:07:03;99782.09;;;14.64;79.26
35519;BME280;21627;48.216;16.482;2023-05-11T07:09:30;99783.81;;;14.65;76.38
35519;BME280;21627;48.216;16.482;2023-05-11T07:11:57;99782.00;;;14.68;77.38
35519;BME280;21627;48.216;16.482;2023-05-11T07:14:24;99777.53;;;14.78;78.30
35519;BME280;21627;48.216;16.482;2023-05-11T07:16:51;99783.56;;;14.79;76.14
35519;BME280;21627;48.216;16.482;2023-05-11T07:19:19;99780.00;;;14.86;76.38
35519;BME280;21627;48.216;16.482;2023-05-11T07:21:46;99786.81;;;14.93;77.23
35519;BME280;21627;48.216;16.482;2023-05-11T07:24:13;99785.91;;;14.96;75.87
35519;BME280;21627;48.216;16.482;2023-05-11T07:26:40;99787.53;;;15.01;77.70
35519;BME280;21627;48.216;16.482;2023-05-11T07:29:07;99783.22;;;15.00;75.82
35519;BME280;21627;48.216;16.482;2023-05-11T07:31:34;99784.72;;;15.13;73.46
35519;BME280;21627;48.216;16.482;2023-05-11T07:34:02;99787.25;;;15.17;77.04
35519;BME280;21627;48.216;16.482;2023-05-11T07:36:30;99784.56;;;15.21;77.35
35519;BME280;21627;48.216;16.482;2023-05-11T07:38:57;99787.88;;;15.29;79.39
35519;BME280;21627;48.216;16.482;2023-05-11T07:41:27;99786.94;;;15.33;79.77
35519;BME280;21627;48.216;16.482;2023-05-11T07:43:54;99784.13;;;15.44;78.19
35519;BME280;21627;48.216;16.482;2023-05-11T07:46:22;99779.72;;;15.48;75.70
35519;BME280;21627;48.216;16.482;2023-05-11T07:48:49;99777.91;;;15.51;73.98
35519;BME280;21627;48.216;16.482;2023-05-11T07:51:29;99773.28;;;15.66;73.46
35519;BME280;21627;48.216;16.482;2023-05-11T07:53:56;99779.16;;;15.78;73.49
35519;BME280;21627;48.216;16.482;2023-05-11T07:56:23;99772.91;;;15.86;74.33
35519;BME280;21627;48.216;16.482;2023-05-11T07:58:50;99781.34;;;15.97;71.09
35519;BME280;21627;48.216;16.482;2023-05-11T08:01:17;99772.47;;;16.06;73.45
35519;BME280;21627;48.216;16.482;2023-05-11T08:03:45;99778.53;;;16.08;72.36
35519;BME280;21627;48.216;16.482;2023-05-11T08:06:12;99784.31;;;16.20;69.03
35519;BME280;21627;48.216;16.482;2023-05-11T08:08:39;99778.97;;;16.25;69.63
35519;BME280;21627;48.216;16.482;2023-05-11T08:11:06;99782.31;;;16.32;70.72
35519;BME280;21627;48.216;16.482;2023-05-11T08:13:33;99784.66;;;16.42;68.39
35519;BME280;21627;48.216;16.482;2023-05-11T08:16:00;99774.09;;;16.49;67.33
35519;BME280;21627;48.216;16.482;2023-05-11T08:18:27;99782.44;;;16.63;67.38
35519;BME280;21627;48.216;16.482;2023-05-11T08:20:55;99784.00;;;16.70;66.56
35519;BME280;21627;48.216;16.482;2023-05-11T08:23:22;99781.34;;;16.73;67.47
35519;BME280;21627;48.216;16.482;2023-05-11T08:25:52;99785.69;;;16.73;66.94
35519;BME280;21627;48.216;16.482;2023-05-11T08:28:20;99787.28;;;16.80;65.39
35519;BME280;21627;48.216;16.482;2023-05-11T08:30:57;99788.00;;;16.86;68.46
35519;BME280;21627;48.216;16.482;2023-05-11T08:33:24;99782.88;;;16.83;67.14
35519;BME280;21627;48.216;16.482;2023-05-11T08:36:05;99772.22;;;16.91;66.01
35519;BME280;21627;48.216;16.482;2023-05-11T08:38:34;99778.09;;;16.99;64.33
35519;BME280;21627;48.216;16.482;2023-05-11T08:41:01;99770.16;;;17.04;65.98
35519;BME280;21627;48.216;16.482;2023-05-11T08:43:29;99769.84;;;17.15;66.12
35519;BME280;21627;48.216;16.482;2023-05-11T08:46:03;99767.00;;;17.24;66.13
35519;BME280;21627;48.216;16.482;2023-05-11T08:48:31;99758.38;;;17.20;63.03
35519;BME280;21627;48.216;16.482;2023-05-11T08:50:58;99758.88;;;17.35;62.37
35519;BME280;21627;48.216;16.482;2023-05-11T08:53:26;99756.22;;;17.36;62.72
35519;BME280;21627;48.216;16.482;2023-05-11T08:55:57;99754.19;;;17.46;62.15
35519;BME280;21627;48.216;16.482;2023-05-11T08:58:26;99755.59;;;17.58;62.99
35519;BME280;21627;48.216;16.482;2023-05-11T09:00:54;99753.72;;;17.63;62.50
35519;BME280;21627;48.216;16.482;2023-05-11T09:03:21;99747.44;;;17.68;61.54
35519;BME280;21627;48.216;16.482;2023-05-11T09:05:49;99740.28;;;17.75;61.51
35519;BME280;21627;48.216;16.482;2023-05-11T09:08:17;99737.63;;;17.77;59.05
35519;BME280;21627;48.216;16.482;2023-05-11T09:10:45;99742.38;;;17.93;60.40
35519;BME280;21627;48.216;16.482;2023-05-11T09:13:12;99740.59;;;17.94;60.73
35519;BME280;21627;48.216;16.482;2023-05-11T09:15:40;99738.56;;;18.04;57.31
35519;BME280;21627;48.216;16.482;2023-05-11T09:18:07;99739.25;;;18.10;56.31
35519;BME280;21627;48.216;16.482;2023-05-11T09:20:34;99743.53;;;18.13;56.57
35519;BME280;21627;48.216;16.482;2023-05-11T09:23:01;99739.25;;;18.10;55.89
35519;BME280;21627;48.216;16.482;2023-05-11T09:25:31;99743.63;;;18.10;56.93
35519;BME280;21627;48.216;16.482;2023-05-11T09:28:00;99736.63;;;18.10;56.70
35519;BME280;21627;48.216;16.482;2023-05-11T09:30:27;99740.94;;;18.11;53.46
35519;BME280;21627;48.216;16.482;2023-05-11T09:32:58;99739.13;;;18.13;53.26
35519;BME280;21627;48.216;16.482;2023-05-11T09:35:31;99740.19;;;18.08;52.62
35519;BME280;21627;48.216;16.482;2023-05-11T09:38:11;99729.72;;;18.08;54.78
35519;BME280;21627;48.216;16.482;2023-05-11T09:40:50;99737.22;;;18.19;55.72
35519;BME280;21627;48.216;16.482;2023-05-11T09:43:29;99745.63;;;18.30;56.85
35519;BME280;21627;48.216;16.482;2023-05-11T09:45:58;99727.53;;;18.22;52.69
35519;BME280;21627;48.216;16.482;2023-05-11T09:48:33;99727.63;;;18.19;53.28
35519;BME280;21627;48.216;16.482;2023-05-11T09:51:06;99734.50;;;18.22;53.63
35519;BME280;21627;48.216;16.482;2023-05-11T09:53:44;99725.78;;;18.23;51.72
35519;BME280;21627;48.216;16.482;2023-05-11T09:56:12;99735.28;;;18.25;52.76
35519;BME280;21627;48.216;16.482;2023-05-11T10:01:17;99727.47;;;18.24;53.21
35519;BME280;21627;48.216;16.482;2023-05-11T10:03:50;99730.94;;;18.24;53.52
35519;BME280;21627;48.216;16.482;2023-05-11T10:06:48;99722.34;;;18.21;51.73
35519;BME280;21627;48.216;16.482;2023-05-11T10:09:18;99719.47;;;18.28;52.75
35519;BME280;21627;48.216;16.482;2023-05-11T10:11:49;99716.25;;;18.47;52.41
35519;BME280;21627;48.216;16.482;2023-05-11T10:14:18;99717.34;;;18.66;50.95
35519;BME280;21627;48.216;16.482;2023-05-11T10:16:46;99713.44;;;18.79;52.30
35519;BME280;21627;48.216;16.482;2023-05-11T10:19:14;99718.88;;;18.73;50.54
35519;BME280;21627;48.216;16.482;2023-05-11T10:21:41;99708.34;;;18.75;50.75
35519;BME280;21627;48.216;16.482;2023-05-11T10:24:09;99702.06;;;18.80;51.96
35519;BME280;21627;48.216;16.482;2023-05-11T10:26:37;99709.97;;;18.79;49.63
35519;BME280;21627;48.216;16.482;2023-05-11T10:29:04;99704.41;;;18.88;50.66
35519;BME280;21627;48.216;16.482;2023-05-11T10:31:32;99697.66;;;19.06;53.21
35519;BME280;21627;48.216;16.482;2023-05-11T10:34:00;99706.09;;;19.14;52.40
35519;BME280;21627;48.216;16.482;2023-05-11T10:36:28;99708.13;;;19.31;49.99
35519;BME280;21627;48.216;16.482;2023-05-11T10:38:58;99702.88;;;19.31;47.80
35519;BME280;21627;48.216;16.482;2023-05-11T10:41:44;99705.09;;;19.42;46.90
35519;BME280;21627;48.216;16.482;2023-05-11T10:47:51;99690.28;;;19.41;48.22
35519;BME280;21627;48.216;16.482;2023-05-11T10:56:36;99690.00;;;19.72;47.97
35519;BME280;21627;48.216;16.482;2023-05-11T11:02:12;99674.81;;;20.02;47.48
35519;BME280;21627;48.216;16.482;2023-05-11T11:04:48;99675.25;;;20.14;46.59
35519;BME280;21627;48.216;16.482;2023-05-11T11:07:17;99681.59;;;20.08;45.18
35519;BME280;21627;48.216;16.482;2023-05-11T11:10:00;99670.00;;;19.92;45.81
35519;BME280;21627;48.216;16.482;2023-05-11T11:12:31;99678.84;;;19.89;45.63
35519;BME280;21627;48.216;16.482;2023-05-11T11:15:05;99661.16;;;19.94;46.51
35519;BME280;21627;48.216;16.482;2023-05-11T11:17:34;99668.78;;;20.00;46.34
35519;BME280;21627;48.216;16.482;2023-05-11T11:20:04;99665.31;;;20.00;47.88
35519;BME280;21627;48.216;16.482;2023-05-11T11:25:06;99659.75;;;19.85;45.78
35519;BME280;21627;48.216;16.482;2023-05-11T11:30:25;99663.91;;;19.69;45.55
35519;BME280;21627;48.216;16.482;2023-05-11T11:38:14;99650.16;;;19.39;46.74
35519;BME280;21627;48.216;16.482;2023-05-11T11:40:49;99650.53;;;19.52;45.74
35519;BME280;21627;48.216;16.482;2023-05-11T11:43:27;99647.34;;;19.67;47.29
35519;BME280;21627;48.216;16.482;2023-05-11T11:45:58;99653.34;;;19.71;44.98
35519;BME280;21627;48.216;16.482;2023-05-11T11:48:34;99654.31;;;19.68;45.83
35519;BME280;21627;48.216;16.482;2023-05-11T11:51:07;99660.56;;;19.64;46.13
35519;BME280;21627;48.216;16.482;2023-05-11T12:01:19;99650.34;;;19.80;43.96
35519;BME280;21627;48.216;16.482;2023-05-11T12:04:15;99646.44;;;19.90;44.99
35519;BME280;21627;48.216;16.482;2023-05-11T12:06:45;99639.84;;;20.02;44.19
35519;BME280;21627;48.216;16.482;2023-05-11T12:09:21;99646.16;;;20.18;44.89
35519;BME280;21627;48.216;16.482;2023-05-11T12:11:49;99644.31;;;20.42;42.58
35519;BME280;21627;48.216;16.482;2023-05-11T12:14:17;99644.78;;;20.52;42.40
35519;BME280;21627;48.216;16.482;2023-05-11T12:17:03;99632.84;;;20.65;42.68
35519;BME280;21627;48.216;16.482;2023-05-11T12:19:31;99628.84;;;20.77;41.57
35519;BME280;21627;48.216;16.482;2023-05-11T12:21:58;99620.78;;;21.01;44.75
35519;BME280;21627;48.216;16.482;2023-05-11T12:24:26;99622.44;;;20.83;41.59
35519;BME280;21627;48.216;16.482;2023-05-11T12:26:56;99619.94;;;21.00;41.69
35519;BME280;21627;48.216;16.482;2023-05-11T12:29:23;99616.38;;;21.20;41.89
35519;BME280;21627;48.216;16.482;2023-05-11T12:31:51;99604.75;;;21.07;41.29
35519;BME280;21627;48.216;16.482;2023-05-11T12:34:20;99608.13;;;21.09;41.25
35519;BME280;21627;48.216;16.482;2023-05-11T12:36:52;99614.53;;;21.03;40.54
35519;BME280;21627;48.216;16.482;2023-05-11T12:39:23;99614.47;;;21.05;41.89
35519;BME280;21627;48.216;16.482;2023-05-11T12:41:53;99618.81;;;21.25;40.17
35519;BME280;21627;48.216;16.482;2023-05-11T12:44:25;99617.59;;;21.32;40.88
35519;BME280;21627;48.216;16.482;2023-05-11T12:46:53;99603.25;;;21.39;39.21
35519;BME280;21627;48.216;16.482;2023-05-11T12:49:24;99604.31;;;21.35;41.36
35519;BME280;21627;48.216;16.482;2023-05-11T12:52:04;99596.16;;;21.41;41.74
35519;BME280;21627;48.216;16.482;2023-05-11T12:54:49;99603.63;;;21.50;40.22
35519;BME280;21627;48.216;16.482;2023-05-11T12:57:28;99594.00;;;21.49;42.87
35519;BME280;21627;48.216;16.482;2023-05-11T13:00:09;99600.56;;;21.77;41.25
35519;BME280;21627;48.216;16.482;2023-05-11T13:02:55;99592.84;;;21.91;39.57
35519;BME280;21627;48.216;16.482;2023-05-11T13:05:26;99590.56;;;22.02;41.71
35519;BME280;21627;48.216;16.482;2023-05-11T13:08:03;99598.56;;;21.82;39.36
35519;BME280;21627;48.216;16.482;2023-05-11T13:10:31;99584.63;;;21.63;40.44
35519;BME280;21627;48.216;16.482;2023-05-11T13:12:58;99583.81;;;21.97;38.64
35519;BME280;21627;48.216;16.482;2023-05-11T13:15:25;99574.59;;;21.88;40.15
35519;BME280;21627;48.216;16.482;2023-05-11T13:17:58;99587.56;;;21.74;37.86
35519;BME280;21627;48.216;16.482;2023-05-11T13:20:30;99587.84;;;21.50;39.09
35519;BME280;21627;48.216;16.482;2023-05-11T13:23:09;99584.19;;;21.34;38.78
35519;BME280;21627;48.216;16.482;2023-05-11T13:28:16;99566.78;;;21.12;40.17
35519;BME280;21627;48.216;16.482;2023-05-11T13:30:44;99576.16;;;21.37;40.81
35519;BME280;21627;48.216;16.482;2023-05-11T13:33:12;99565.97;;;21.85;39.95
35519;BME280;21627;48.216;16.482;2023-05-11T13:35:40;99572.06;;;22.21;37.58
35519;BME280;21627;48.216;16.482;2023-05-11T13:38:11;99563.88;;;22.28;36.63
35519;BME280;21627;48.216;16.482;2023-05-11T13:40:39;99559.50;;;21.92;39.29
35519;BME280;21627;48.216;16.482;2023-05-11T13:43:06;99564.34;;;21.82;38.74
35519;BME280;21627;48.216;16.482;2023-05-11T13:45:34;99566.50;;;21.74;37.08
35519;BME280;21627;48.216;16.482;2023-05-11T13:48:02;99563.72;;;21.77;38.73
35519;BME280;21627;48.216;16.482;2023-05-11T13:50:29;99564.84;;;21.54;39.07